sensor_id;sensor_type;location;lat;lon;timestamp;pressure;altitude;pressure_sealevel;temperature;humidity
61528;BME280;47395;42.032;-8.634;2023-01-25T00:01:52;102239.00;;;10.03;56.76
61528;BME280;47395;42.032;-8.634;2023-01-25T00:03:53;102233.84;;;9.97;58.20
61528;BME280;47395;42.032;-8.634;2023-01-25T00:05:58;102234.84;;;9.91;58.58
61528;BME280;47395;42.032;-8.634;2023-01-25T00:08:00;102241.97;;;9.86;57.55
61528;BME280;47395;42.032;-8.634;2023-01-25T00:10:01;102234.34;;;9.74;56.76
61528;BME280;47395;42.032;-8.634;2023-01-25T00:12:03;102229.31;;;9.63;57.50
61528;BME280;47395;42.032;-8.634;2023-01-25T00:14:04;102227.72;;;9.54;57.04
61528;BME280;47395;42.032;-8.634;2023-01-25T00:16:05;102234.44;;;9.69;58.68
61528;BME280;47395;42.032;-8.634;2023-01-25T00:18:06;102238.19;;;9.59;57.82
61528;BME280;47395;42.032;-8.634;2023-01-25T00:20:08;102241.59;;;9.62;57.66
61528;BME280;47395;42.032;-8.634;2023-01-25T00:22:09;102237.28;;;9.60;58.22
61528;BME280;47395;42.032;-8.634;2023-01-25T00:24:10;102237.44;;;9.52;58.28
61528;BME280;47395;42.032;-8.634;2023-01-25T00:26:14;102235.69;;;9.49;57.78
61528;BME280;47395;42.032;-8.634;2023-01-25T00:28:15;102230.56;;;9.43;57.70
61528;BME280;47395;42.032;-8.634;2023-01-25T00:30:17;102224.69;;;9.30;57.18
61528;BME280;47395;42.032;-8.634;2023-01-25T00:34:41;102222.78;;;9.38;59.57
61528;BME280;47395;42.032;-8.634;2023-01-25T00:36:43;102223.66;;;9.37;58.11
61528;BME280;47395;42.032;-8.634;2023-01-25T00:38:46;102229.66;;;9.44;57.98
61528;BME280;47395;42.032;-8.634;2023-01-25T00:40:48;102241.88;;;9.48;58.07
61528;BME280;47395;42.032;-8.634;2023-01-25T00:42:49;102244.31;;;9.58;57.84
61528;BME280;47395;42.032;-8.634;2023-01-25T00:44:50;102236.41;;;9.58;61.06
61528;BME280;47395;42.032;-8.634;2023-01-25T00:46:50;102240.97;;;9.49;58.03
61528;BME280;47395;42.032;-8.634;2023-01-25T00:48:54;102248.69;;;9.59;56.99
61528;BME280;47395;42.032;-8.634;2023-01-25T00:51:00;102241.81;;;9.51;60.46
61528;BME280;47395;42.032;-8.634;2023-01-25T00:53:01;102239.16;;;9.53;58.13
61528;BME280;47395;42.032;-8.634;2023-01-25T00:55:02;102238.75;;;9.73;59.69
61528;BME280;47395;42.032;-8.634;2023-01-25T00:57:03;102241.44;;;9.70;58.16
61528;BME280;47395;42.032;-8.634;2023-01-25T00:59:05;102229.38;;;9.60;57.82
61528;BME280;47395;42.032;-8.634;2023-01-25T01:01:06;102239.75;;;9.68;58.38
61528;BME280;47395;42.032;-8.634;2023-01-25T01:03:07;102231.91;;;9.64;59.51
61528;BME280;47395;42.032;-8.634;2023-01-25T01:05:08;102239.75;;;9.66;58.08
61528;BME280;47395;42.032;-8.634;2023-01-25T01:07:11;102236.28;;;9.65;58.84
61528;BME280;47395;42.032;-8.634;2023-01-25T01:09:15;102241.47;;;9.69;57.98
61528;BME280;47395;42.032;-8.634;2023-01-25T01:11:16;102238.19;;;9.59;58.22
61528;BME280;47395;42.032;-8.634;2023-01-25T01:13:17;102240.31;;;9.39;58.15
61528;BME280;47395;42.032;-8.634;2023-01-25T01:15:18;102243.53;;;9.54;60.41
61528;BME280;47395;42.032;-8.634;2023-01-25T01:17:19;102232.00;;;9.60;59.10
61528;BME280;47395;42.032;-8.634;2023-01-25T01:19:21;102231.81;;;9.69;59.19
61528;BME280;47395;42.032;-8.634;2023-01-25T01:21:22;102232.59;;;9.74;60.46
61528;BME280;47395;42.032;-8.634;2023-01-25T01:23:23;102232.59;;;9.74;60.08
61528;BME280;47395;42.032;-8.634;2023-01-25T01:25:24;102230.53;;;9.46;58.52
61528;BME280;47395;42.032;-8.634;2023-01-25T01:27:25;102231.97;;;9.61;58.92
61528;BME280;47395;42.032;-8.634;2023-01-25T01:29:26;102227.94;;;9.43;59.18
61528;BME280;47395;42.032;-8.634;2023-01-25T01:31:27;102225.47;;;9.35;59.59
61528;BME280;47395;42.032;-8.634;2023-01-25T01:33:40;102224.69;;;9.30;60.21
61528;BME280;47395;42.032;-8.634;2023-01-25T01:35:42;102230.81;;;9.31;59.64
61528;BME280;47395;42.032;-8.634;2023-01-25T01:37:46;102229.66;;;9.44;59.57
61528;BME280;47395;42.032;-8.634;2023-01-25T01:39:47;102225.47;;;9.35;59.16
61528;BME280;47395;42.032;-8.634;2023-01-25T01:41:48;102236.53;;;9.53;60.71
61528;BME280;47395;42.032;-8.634;2023-01-25T01:43:48;102229.66;;;9.44;58.86
61528;BME280;47395;42.032;-8.634;2023-01-25T01:48:59;102226.34;;;9.78;60.09
61528;BME280;47395;42.032;-8.634;2023-01-25T01:51:22;102227.59;;;9.60;60.42
61528;BME280;47395;42.032;-8.634;2023-01-25T01:53:26;102230.97;;;9.67;60.37
61528;BME280;47395;42.032;-8.634;2023-01-25T01:55:30;102229.34;;;9.61;60.29
61528;BME280;47395;42.032;-8.634;2023-01-25T01:57:35;102228.28;;;9.70;61.77
61528;BME280;47395;42.032;-8.634;2023-01-25T01:59:45;102230.34;;;9.56;60.56
61528;BME280;47395;42.032;-8.634;2023-01-25T02:01:48;102226.00;;;9.53;59.27
61528;BME280;47395;42.032;-8.634;2023-01-25T02:03:49;102232.53;;;9.77;62.27
61528;BME280;47395;42.032;-8.634;2023-01-25T02:08:29;102237.88;;;9.73;62.18
61528;BME280;47395;42.032;-8.634;2023-01-25T02:10:33;102240.84;;;9.57;59.64
61528;BME280;47395;42.032;-8.634;2023-01-25T02:12:36;102242.00;;;9.42;60.40
61528;BME280;47395;42.032;-8.634;2023-01-25T02:14:45;102238.91;;;9.18;59.34
61528;BME280;47395;42.032;-8.634;2023-01-25T02:16:47;102253.13;;;9.09;60.28
61528;BME280;47395;42.032;-8.634;2023-01-25T02:18:48;102253.06;;;9.14;62.00
61528;BME280;47395;42.032;-8.634;2023-01-25T02:20:52;102251.19;;;9.19;62.90
61528;BME280;47395;42.032;-8.634;2023-01-25T02:23:26;102242.53;;;9.14;60.19
61528;BME280;47395;42.032;-8.634;2023-01-25T02:25:29;102253.88;;;9.16;60.71
61528;BME280;47395;42.032;-8.634;2023-01-25T02:27:31;102259.88;;;9.23;61.41
61528;BME280;47395;42.032;-8.634;2023-01-25T02:29:34;102264.34;;;9.19;60.97
61528;BME280;47395;42.032;-8.634;2023-01-25T02:31:35;102263.28;;;9.28;61.48
61528;BME280;47395;42.032;-8.634;2023-01-25T02:33:36;102260.84;;;9.17;59.75
61528;BME280;47395;42.032;-8.634;2023-01-25T02:35:46;102270.03;;;8.93;59.68
61528;BME280;47395;42.032;-8.634;2023-01-25T02:37:50;102271.34;;;9.19;61.06
61528;BME280;47395;42.032;-8.634;2023-01-25T02:39:51;102265.22;;;9.18;61.54
61528;BME280;47395;42.032;-8.634;2023-01-25T02:41:52;102246.69;;;9.26;63.01
61528;BME280;47395;42.032;-8.634;2023-01-25T02:43:54;102267.81;;;9.21;59.18
61528;BME280;47395;42.032;-8.634;2023-01-25T02:46:07;102252.22;;;9.10;60.83
61528;BME280;47395;42.032;-8.634;2023-01-25T02:48:11;102243.38;;;9.14;61.29
61528;BME280;47395;42.032;-8.634;2023-01-25T02:50:12;102260.06;;;9.12;58.75
61528;BME280;47395;42.032;-8.634;2023-01-25T02:52:12;102261.78;;;9.14;58.69
61528;BME280;47395;42.032;-8.634;2023-01-25T02:54:15;102253.91;;;9.13;60.37
61528;BME280;47395;42.032;-8.634;2023-01-25T02:56:17;102257.38;;;9.17;59.76
61528;BME280;47395;42.032;-8.634;2023-01-25T02:58:18;102267.97;;;9.12;59.22
61528;BME280;47395;42.032;-8.634;2023-01-25T03:00:19;102245.78;;;9.27;60.35
61528;BME280;47395;42.032;-8.634;2023-01-25T03:02:20;102254.69;;;9.18;59.73
61528;BME280;47395;42.032;-8.634;2023-01-25T03:04:22;102256.63;;;9.10;59.47
61528;BME280;47395;42.032;-8.634;2023-01-25T03:06:22;102247.53;;;9.26;58.94
61528;BME280;47395;42.032;-8.634;2023-01-25T03:08:24;102258.22;;;9.19;61.46
61528;BME280;47395;42.032;-8.634;2023-01-25T03:10:27;102257.31;;;9.20;60.36
61528;BME280;47395;42.032;-8.634;2023-01-25T03:12:29;102250.28;;;9.20;59.15
61528;BME280;47395;42.032;-8.634;2023-01-25T03:14:30;102252.16;;;9.15;58.19
61528;BME280;47395;42.032;-8.634;2023-01-25T03:16:31;102263.13;;;9.37;58.85
61528;BME280;47395;42.032;-8.634;2023-01-25T03:18:33;102258.88;;;9.32;56.44
61528;BME280;47395;42.032;-8.634;2023-01-25T03:20:34;102251.19;;;9.21;58.56
61528;BME280;47395;42.032;-8.634;2023-01-25T03:22:35;102263.63;;;9.11;60.98
61528;BME280;47395;42.032;-8.634;2023-01-25T03:24:36;102269.59;;;9.21;58.13
61528;BME280;47395;42.032;-8.634;2023-01-25T03:26:37;102263.28;;;9.30;59.47
61528;BME280;47395;42.032;-8.634;2023-01-25T03:29:05;102268.91;;;9.09;59.54
61528;BME280;47395;42.032;-8.634;2023-01-25T03:31:10;102277.75;;;9.04;58.70
61528;BME280;47395;42.032;-8.634;2023-01-25T03:33:12;102274.22;;;9.05;59.00
61528;BME280;47395;42.032;-8.634;2023-01-25T03:35:13;102262.00;;;9.00;62.05
61528;BME280;47395;42.032;-8.634;2023-01-25T03:37:14;102276.03;;;9.03;61.06
61528;BME280;47395;42.032;-8.634;2023-01-25T03:39:16;102271.56;;;9.06;59.36
61528;BME280;47395;42.032;-8.634;2023-01-25T03:41:17;102269.66;;;9.14;60.17
61528;BME280;47395;42.032;-8.634;2023-01-25T03:43:20;102277.47;;;9.21;59.41
61528;BME280;47395;42.032;-8.634;2023-01-25T03:45:23;102275.22;;;8.97;57.49
61528;BME280;47395;42.032;-8.634;2023-01-25T03:47:25;102278.63;;;9.04;59.76
61528;BME280;47395;42.032;-8.634;2023-01-25T03:49:26;102280.41;;;9.00;60.08
61528;BME280;47395;42.032;-8.634;2023-01-25T03:51:27;102283.03;;;9.02;59.52
61528;BME280;47395;42.032;-8.634;2023-01-25T03:53:29;102275.97;;;9.06;61.56
61528;BME280;47395;42.032;-8.634;2023-01-25T03:55:39;102278.59;;;9.06;62.21
61528;BME280;47395;42.032;-8.634;2023-01-25T03:57:40;102288.06;;;9.14;62.54
61528;BME280;47395;42.032;-8.634;2023-01-25T03:59:41;102289.75;;;9.19;58.90
61528;BME280;47395;42.032;-8.634;2023-01-25T04:01:42;102297.66;;;8.65;59.85
61528;BME280;47395;42.032;-8.634;2023-01-25T04:03:43;102286.25;;;8.65;60.21
61528;BME280;47395;42.032;-8.634;2023-01-25T04:05:44;102281.03;;;8.61;63.03
61528;BME280;47395;42.032;-8.634;2023-01-25T04:07:45;102294.72;;;8.84;63.88
61528;BME280;47395;42.032;-8.634;2023-01-25T04:09:48;102298.91;;;8.96;61.06
61528;BME280;47395;42.032;-8.634;2023-01-25T04:11:51;102294.72;;;8.84;60.43
61528;BME280;47395;42.032;-8.634;2023-01-25T04:13:53;102291.09;;;8.91;61.18
61528;BME280;47395;42.032;-8.634;2023-01-25T04:15:56;102303.41;;;8.89;62.65
61528;BME280;47395;42.032;-8.634;2023-01-25T04:18:17;102298.91;;;8.97;61.54
61528;BME280;47395;42.032;-8.634;2023-01-25T04:20:18;102303.06;;;8.54;59.81
61528;BME280;47395;42.032;-8.634;2023-01-25T04:22:19;102296.81;;;8.61;62.64
61528;BME280;47395;42.032;-8.634;2023-01-25T04:24:22;102296.66;;;8.71;61.79
61528;BME280;47395;42.032;-8.634;2023-01-25T04:26:23;102298.59;;;8.61;62.00
61528;BME280;47395;42.032;-8.634;2023-01-25T04:28:29;102301.25;;;8.58;62.24
61528;BME280;47395;42.032;-8.634;2023-01-25T04:30:30;102297.59;;;8.67;60.97
61528;BME280;47395;42.032;-8.634;2023-01-25T04:32:34;102301.25;;;8.59;60.67
61528;BME280;47395;42.032;-8.634;2023-01-25T04:34:35;102299.81;;;8.35;62.64
61528;BME280;47395;42.032;-8.634;2023-01-25T04:36:36;102298.81;;;8.41;63.62
61528;BME280;47395;42.032;-8.634;2023-01-25T04:38:38;102295.25;;;8.46;63.25
61528;BME280;47395;42.032;-8.634;2023-01-25T04:40:40;102304.00;;;8.48;64.51
61528;BME280;47395;42.032;-8.634;2023-01-25T04:42:42;102296.03;;;8.52;62.81
61528;BME280;47395;42.032;-8.634;2023-01-25T04:44:43;102291.13;;;8.30;62.77
61528;BME280;47395;42.032;-8.634;2023-01-25T04:46:44;102282.34;;;8.31;63.37
61528;BME280;47395;42.032;-8.634;2023-01-25T04:48:45;102284.06;;;8.32;62.52
61528;BME280;47395;42.032;-8.634;2023-01-25T04:50:46;102281.41;;;8.35;63.52
61528;BME280;47395;42.032;-8.634;2023-01-25T04:52:48;102281.47;;;8.30;63.91
61528;BME280;47395;42.032;-8.634;2023-01-25T04:54:49;102286.66;;;8.36;62.68
61528;BME280;47395;42.032;-8.634;2023-01-25T04:56:50;102289.19;;;8.43;65.08
61528;BME280;47395;42.032;-8.634;2023-01-25T04:58:51;102289.94;;;8.51;63.52
61528;BME280;47395;42.032;-8.634;2023-01-25T05:00:52;102288.13;;;8.56;63.63
61528;BME280;47395;42.032;-8.634;2023-01-25T05:05:11;102284.06;;;8.32;63.69
61528;BME280;47395;42.032;-8.634;2023-01-25T05:07:12;102287.00;;;8.08;64.53
61528;BME280;47395;42.032;-8.634;2023-01-25T05:09:13;102288.94;;;7.94;63.66
61528;BME280;47395;42.032;-8.634;2023-01-25T05:11:14;102283.59;;;8.02;64.46
61528;BME280;47395;42.032;-8.634;2023-01-25T05:13:28;102275.97;;;7.81;63.84
61528;BME280;47395;42.032;-8.634;2023-01-25T05:15:42;102278.44;;;7.94;65.11
61528;BME280;47395;42.032;-8.634;2023-01-25T05:17:43;102278.34;;;8.02;64.03
61528;BME280;47395;42.032;-8.634;2023-01-25T05:19:44;102274.00;;;8.01;65.13
61528;BME280;47395;42.032;-8.634;2023-01-25T05:21:48;102275.88;;;7.89;65.08
61528;BME280;47395;42.032;-8.634;2023-01-25T05:23:59;102274.69;;;7.41;64.17
61528;BME280;47395;42.032;-8.634;2023-01-25T05:26:02;102270.19;;;7.53;65.63
61528;BME280;47395;42.032;-8.634;2023-01-25T05:28:21;102268.69;;;7.28;66.30
61528;BME280;47395;42.032;-8.634;2023-01-25T05:30:42;102272.47;;;6.96;66.79
61528;BME280;47395;42.032;-8.634;2023-01-25T05:32:54;102265.34;;;7.09;68.00
61528;BME280;47395;42.032;-8.634;2023-01-25T05:34:57;102267.22;;;6.96;66.39
61528;BME280;47395;42.032;-8.634;2023-01-25T05:36:59;102269.69;;;7.15;68.14
61528;BME280;47395;42.032;-8.634;2023-01-25T05:39:00;102269.94;;;6.85;65.83
61528;BME280;47395;42.032;-8.634;2023-01-25T05:41:04;102267.19;;;7.01;66.38
61528;BME280;47395;42.032;-8.634;2023-01-25T05:43:05;102269.03;;;6.88;66.91
61528;BME280;47395;42.032;-8.634;2023-01-25T05:45:08;102269.88;;;6.95;68.94
61528;BME280;47395;42.032;-8.634;2023-01-25T05:47:14;102275.84;;;7.11;67.24
61528;BME280;47395;42.032;-8.634;2023-01-25T05:49:15;102273.34;;;6.97;67.28
61528;BME280;47395;42.032;-8.634;2023-01-25T05:51:17;102262.63;;;7.22;68.42
61528;BME280;47395;42.032;-8.634;2023-01-25T05:53:24;102272.19;;;7.29;68.19
61528;BME280;47395;42.032;-8.634;2023-01-25T05:55:25;102276.53;;;7.28;65.86
61528;BME280;47395;42.032;-8.634;2023-01-25T05:57:27;102268.59;;;7.38;67.67
61528;BME280;47395;42.032;-8.634;2023-01-25T05:59:29;102271.97;;;7.49;65.51
61528;BME280;47395;42.032;-8.634;2023-01-25T06:01:33;102285.78;;;7.67;67.57
61528;BME280;47395;42.032;-8.634;2023-01-25T06:03:34;102274.34;;;7.73;67.74
61528;BME280;47395;42.032;-8.634;2023-01-25T06:05:36;102279.50;;;7.79;67.37
61528;BME280;47395;42.032;-8.634;2023-01-25T06:07:37;102287.47;;;7.69;65.84
61528;BME280;47395;42.032;-8.634;2023-01-25T06:09:38;102275.06;;;7.82;66.03
61528;BME280;47395;42.032;-8.634;2023-01-25T06:11:42;102276.75;;;7.88;66.01
61528;BME280;47395;42.032;-8.634;2023-01-25T06:13:44;102274.38;;;7.69;64.42
61528;BME280;47395;42.032;-8.634;2023-01-25T06:15:52;102279.88;;;7.44;65.75
61528;BME280;47395;42.032;-8.634;2023-01-25T06:18:13;102283.38;;;7.43;66.01
61528;BME280;47395;42.032;-8.634;2023-01-25T06:20:31;102277.34;;;7.35;65.70
61528;BME280;47395;42.032;-8.634;2023-01-25T06:22:38;102287.03;;;7.30;67.95
61528;BME280;47395;42.032;-8.634;2023-01-25T06:24:39;102286.03;;;7.40;67.04
61528;BME280;47395;42.032;-8.634;2023-01-25T06:26:40;102291.06;;;7.61;66.90
61528;BME280;47395;42.032;-8.634;2023-01-25T06:28:41;102284.88;;;7.69;65.77
61528;BME280;47395;42.032;-8.634;2023-01-25T06:30:42;102282.91;;;7.87;68.04
61528;BME280;47395;42.032;-8.634;2023-01-25T06:32:42;102296.38;;;7.54;63.65
61528;BME280;47395;42.032;-8.634;2023-01-25T06:34:43;102292.72;;;7.73;65.02
61528;BME280;47395;42.032;-8.634;2023-01-25T06:36:51;102293.31;;;7.93;67.54
61528;BME280;47395;42.032;-8.634;2023-01-25T06:38:52;102292.53;;;7.87;65.51
61528;BME280;47395;42.032;-8.634;2023-01-25T06:40:53;102301.28;;;7.87;64.58
61528;BME280;47395;42.032;-8.634;2023-01-25T06:42:54;102310.72;;;8.02;65.58
61528;BME280;47395;42.032;-8.634;2023-01-25T06:44:54;102309.78;;;8.08;65.46
61528;BME280;47395;42.032;-8.634;2023-01-25T06:46:55;102315.09;;;8.02;64.43
61528;BME280;47395;42.032;-8.634;2023-01-25T06:48:57;102314.25;;;8.00;65.55
61528;BME280;47395;42.032;-8.634;2023-01-25T06:51:02;102316.75;;;8.09;64.94
61528;BME280;47395;42.032;-8.634;2023-01-25T06:53:04;102321.63;;;8.39;66.16
61528;BME280;47395;42.032;-8.634;2023-01-25T06:55:06;102318.16;;;8.36;65.17
61528;BME280;47395;42.032;-8.634;2023-01-25T06:57:13;102324.34;;;8.32;63.74
61528;BME280;47395;42.032;-8.634;2023-01-25T06:59:14;102319.25;;;8.18;64.77
61528;BME280;47395;42.032;-8.634;2023-01-25T07:01:23;102326.38;;;8.10;66.02
61528;BME280;47395;42.032;-8.634;2023-01-25T07:03:27;102328.31;;;7.95;65.74
61528;BME280;47395;42.032;-8.634;2023-01-25T07:05:28;102335.94;;;8.14;64.28
61528;BME280;47395;42.032;-8.634;2023-01-25T07:07:29;102324.63;;;8.09;65.67
61528;BME280;47395;42.032;-8.634;2023-01-25T07:09:30;102323.75;;;8.10;65.51
61528;BME280;47395;42.032;-8.634;2023-01-25T07:11:31;102333.19;;;8.23;65.00
61528;BME280;47395;42.032;-8.634;2023-01-25T07:13:32;102336.41;;;8.47;65.05
61528;BME280;47395;42.032;-8.634;2023-01-25T07:15:34;102331.44;;;8.26;64.01
61528;BME280;47395;42.032;-8.634;2023-01-25T07:17:35;102346.19;;;8.34;64.08
61528;BME280;47395;42.032;-8.634;2023-01-25T07:19:36;102333.41;;;8.06;62.16
61528;BME280;47395;42.032;-8.634;2023-01-25T07:21:36;102332.41;;;8.17;64.21
61528;BME280;47395;42.032;-8.634;2023-01-25T07:23:37;102336.72;;;8.22;65.60
61528;BME280;47395;42.032;-8.634;2023-01-25T07:25:47;102340.03;;;8.37;65.21
61528;BME280;47395;42.032;-8.634;2023-01-25T07:27:48;102337.66;;;8.17;63.12
61528;BME280;47395;42.032;-8.634;2023-01-25T07:29:49;102335.13;;;8.09;64.98
61528;BME280;47395;42.032;-8.634;2023-01-25T07:31:50;102343.25;;;7.90;65.65
61528;BME280;47395;42.032;-8.634;2023-01-25T07:33:52;102339.47;;;8.12;65.36
61528;BME280;47395;42.032;-8.634;2023-01-25T07:35:53;102356.94;;;8.16;62.54
61528;BME280;47395;42.032;-8.634;2023-01-25T07:37:58;102353.84;;;7.79;61.19
61528;BME280;47395;42.032;-8.634;2023-01-25T07:39:59;102359.41;;;7.47;63.97
61528;BME280;47395;42.032;-8.634;2023-01-25T07:42:00;102372.66;;;7.31;63.45
61528;BME280;47395;42.032;-8.634;2023-01-25T07:44:05;102366.66;;;7.15;64.05
61528;BME280;47395;42.032;-8.634;2023-01-25T07:46:12;102365.06;;;6.95;67.07
61528;BME280;47395;42.032;-8.634;2023-01-25T07:48:14;102366.94;;;6.79;64.49
61528;BME280;47395;42.032;-8.634;2023-01-25T07:50:15;102367.63;;;7.00;65.03
61528;BME280;47395;42.032;-8.634;2023-01-25T07:52:16;102377.34;;;6.88;66.33
61528;BME280;47395;42.032;-8.634;2023-01-25T07:54:17;102372.28;;;6.54;66.74
61528;BME280;47395;42.032;-8.634;2023-01-25T07:56:18;102365.19;;;6.75;67.81
61528;BME280;47395;42.032;-8.634;2023-01-25T07:58:19;102375.69;;;6.70;67.10
61528;BME280;47395;42.032;-8.634;2023-01-25T08:00:20;102379.31;;;6.50;66.34
61528;BME280;47395;42.032;-8.634;2023-01-25T08:02:21;102379.25;;;6.55;67.47
61528;BME280;47395;42.032;-8.634;2023-01-25T08:04:22;102376.66;;;6.55;67.89
61528;BME280;47395;42.032;-8.634;2023-01-25T08:06:25;102377.59;;;6.43;68.02
61528;BME280;47395;42.032;-8.634;2023-01-25T08:08:31;102390.72;;;6.34;68.93
61528;BME280;47395;42.032;-8.634;2023-01-25T08:10:33;102388.94;;;6.39;67.38
61528;BME280;47395;42.032;-8.634;2023-01-25T08:12:34;102395.94;;;6.35;66.54
61528;BME280;47395;42.032;-8.634;2023-01-25T08:14:35;102396.78;;;6.37;68.95
61528;BME280;47395;42.032;-8.634;2023-01-25T08:16:38;102390.63;;;6.51;67.19
61528;BME280;47395;42.032;-8.634;2023-01-25T08:18:38;102400.22;;;6.58;69.13
61528;BME280;47395;42.032;-8.634;2023-01-25T08:20:39;102408.84;;;6.76;69.34
61528;BME280;47395;42.032;-8.634;2023-01-25T08:22:40;102406.94;;;7.04;68.58
61528;BME280;47395;42.032;-8.634;2023-01-25T08:24:41;102412.94;;;7.21;67.33
61528;BME280;47395;42.032;-8.634;2023-01-25T08:26:42;102417.13;;;7.40;65.47
61528;BME280;47395;42.032;-8.634;2023-01-25T08:28:43;102416.44;;;7.18;64.21
61528;BME280;47395;42.032;-8.634;2023-01-25T08:30:43;102416.13;;;7.57;67.37
61528;BME280;47395;42.032;-8.634;2023-01-25T08:32:44;102412.63;;;7.58;65.00
61528;BME280;47395;42.032;-8.634;2023-01-25T08:34:45;102411.94;;;7.39;64.02
61528;BME280;47395;42.032;-8.634;2023-01-25T08:36:47;102421.56;;;7.34;64.14
61528;BME280;47395;42.032;-8.634;2023-01-25T08:38:53;102418.19;;;7.17;64.03
61528;BME280;47395;42.032;-8.634;2023-01-25T08:40:54;102417.13;;;7.40;66.27
61528;BME280;47395;42.032;-8.634;2023-01-25T08:42:55;102424.97;;;7.47;65.95
61528;BME280;47395;42.032;-8.634;2023-01-25T08:44:56;102423.09;;;7.61;67.48
61528;BME280;47395;42.032;-8.634;2023-01-25T08:46:57;102418.53;;;7.82;65.20
61528;BME280;47395;42.032;-8.634;2023-01-25T08:48:59;102415.84;;;7.88;64.57
61528;BME280;47395;42.032;-8.634;2023-01-25T08:51:01;102426.63;;;7.57;64.07
61528;BME280;47395;42.032;-8.634;2023-01-25T08:53:02;102417.88;;;7.58;65.41
61528;BME280;47395;42.032;-8.634;2023-01-25T08:55:03;102420.38;;;7.72;65.54
61528;BME280;47395;42.032;-8.634;2023-01-25T08:57:04;102417.72;;;7.77;65.24
61528;BME280;47395;42.032;-8.634;2023-01-25T08:59:06;102414.28;;;7.68;64.47
61528;BME280;47395;42.032;-8.634;2023-01-25T09:01:09;102429.31;;;7.49;64.96
61528;BME280;47395;42.032;-8.634;2023-01-25T09:03:10;102425.59;;;7.77;64.07
61528;BME280;47395;42.032;-8.634;2023-01-25T09:05:11;102427.50;;;7.56;64.08
61528;BME280;47395;42.032;-8.634;2023-01-25T09:07:12;102442.25;;;7.69;63.55
61528;BME280;47395;42.032;-8.634;2023-01-25T09:09:13;102439.66;;;7.68;63.41
61528;BME280;47395;42.032;-8.634;2023-01-25T09:11:19;102426.91;;;8.17;63.54
61528;BME280;47395;42.032;-8.634;2023-01-25T09:13:20;102442.38;;;9.68;58.17
61528;BME280;47395;42.032;-8.634;2023-01-25T09:15:21;102445.09;;;12.06;55.21
61528;BME280;47395;42.032;-8.634;2023-01-25T09:17:22;102438.81;;;13.02;50.14
61528;BME280;47395;42.032;-8.634;2023-01-25T09:19:23;102433.28;;;14.87;44.87
61528;BME280;47395;42.032;-8.634;2023-01-25T09:21:24;102444.13;;;15.89;41.61
61528;BME280;47395;42.032;-8.634;2023-01-25T09:23:25;102440.63;;;16.29;42.43
61528;BME280;47395;42.032;-8.634;2023-01-25T09:25:26;102441.28;;;16.92;38.08
61528;BME280;47395;42.032;-8.634;2023-01-25T09:27:27;102438.41;;;17.51;38.19
61528;BME280;47395;42.032;-8.634;2023-01-25T09:29:27;102446.44;;;18.03;36.76
61528;BME280;47395;42.032;-8.634;2023-01-25T09:31:28;102442.41;;;18.29;34.85
61528;BME280;47395;42.032;-8.634;2023-01-25T09:33:59;102444.44;;;18.74;34.68
61528;BME280;47395;42.032;-8.634;2023-01-25T09:36:00;102442.34;;;18.95;35.99
61528;BME280;47395;42.032;-8.634;2023-01-25T09:38:01;102455.94;;;19.84;33.86
61528;BME280;47395;42.032;-8.634;2023-01-25T09:40:02;102454.88;;;19.11;33.20
61528;BME280;47395;42.032;-8.634;2023-01-25T09:48:08;102456.31;;;21.07;30.17
61528;BME280;47395;42.032;-8.634;2023-01-25T09:50:29;102452.88;;;21.05;29.07
61528;BME280;47395;42.032;-8.634;2023-01-25T09:55:27;102453.03;;;21.70;29.43
61528;BME280;47395;42.032;-8.634;2023-01-25T09:57:33;102457.75;;;21.26;28.65
61528;BME280;47395;42.032;-8.634;2023-01-25T09:59:35;102453.03;;;20.74;29.70
61528;BME280;47395;42.032;-8.634;2023-01-25T10:01:55;102460.78;;;21.21;28.86
61528;BME280;47395;42.032;-8.634;2023-01-25T10:04:20;102458.34;;;21.04;29.12
61528;BME280;47395;42.032;-8.634;2023-01-25T10:06:23;102453.03;;;21.17;30.13
61528;BME280;47395;42.032;-8.634;2023-01-25T10:08:35;102453.63;;;21.35;28.48
61528;BME280;47395;42.032;-8.634;2023-01-25T10:10:41;102457.53;;;21.57;28.86
61528;BME280;47395;42.032;-8.634;2023-01-25T10:12:42;102461.28;;;21.67;29.40
61528;BME280;47395;42.032;-8.634;2023-01-25T10:14:43;102446.13;;;21.53;27.77
61528;BME280;47395;42.032;-8.634;2023-01-25T10:19:21;102460.25;;;21.42;28.32
61528;BME280;47395;42.032;-8.634;2023-01-25T10:26:28;102449.00;;;20.96;29.98
61528;BME280;47395;42.032;-8.634;2023-01-25T10:29:07;102451.31;;;21.16;28.56
61528;BME280;47395;42.032;-8.634;2023-01-25T10:31:19;102448.91;;;21.38;29.51
61528;BME280;47395;42.032;-8.634;2023-01-25T10:33:22;102451.59;;;21.51;28.59
61528;BME280;47395;42.032;-8.634;2023-01-25T10:35:27;102453.28;;;20.99;30.03
61528;BME280;47395;42.032;-8.634;2023-01-25T10:37:31;102466.50;;;20.45;30.32
61528;BME280;47395;42.032;-8.634;2023-01-25T10:39:38;102458.84;;;20.96;29.90
61528;BME280;47395;42.032;-8.634;2023-01-25T10:41:44;102458.69;;;21.52;30.27
61528;BME280;47395;42.032;-8.634;2023-01-25T10:43:48;102457.25;;;20.79;29.83
61528;BME280;47395;42.032;-8.634;2023-01-25T10:46:20;102463.53;;;21.20;29.71
61528;BME280;47395;42.032;-8.634;2023-01-25T10:48:34;102463.09;;;22.32;27.96
61528;BME280;47395;42.032;-8.634;2023-01-25T10:50:50;102473.06;;;23.42;26.95
61528;BME280;47395;42.032;-8.634;2023-01-25T10:52:58;102479.91;;;22.73;26.16
61528;BME280;47395;42.032;-8.634;2023-01-25T10:55:26;102480.03;;;23.80;26.10
61528;BME280;47395;42.032;-8.634;2023-01-25T10:57:28;102481.09;;;22.81;26.61
61528;BME280;47395;42.032;-8.634;2023-01-25T10:59:29;102491.47;;;22.86;25.78
61528;BME280;47395;42.032;-8.634;2023-01-25T11:01:32;102481.75;;;23.93;25.13
61528;BME280;47395;42.032;-8.634;2023-01-25T11:03:43;102480.13;;;23.79;25.60
61528;BME280;47395;42.032;-8.634;2023-01-25T11:05:55;102481.91;;;24.03;25.23
61528;BME280;47395;42.032;-8.634;2023-01-25T11:07:57;102482.91;;;24.47;24.43
61528;BME280;47395;42.032;-8.634;2023-01-25T11:10:02;102491.09;;;24.34;24.68
61528;BME280;47395;42.032;-8.634;2023-01-25T11:12:23;102487.97;;;25.29;24.30